createdAt,value
2023-05-09T00:00:06.249Z,14.46
2023-05-09T00:02:36.299Z,14.46
2023-05-09T00:05:05.468Z,14.45
2023-05-09T00:07:34.308Z,14.46
2023-05-09T00:10:04.812Z,14.39
2023-05-09T00:12:33.490Z,14.35
2023-05-09T00:15:02.050Z,14.39
2023-05-09T00:17:31.114Z,14.42
2023-05-09T00:20:01.585Z,14.34
2023-05-09T00:22:30.330Z,14.28
2023-05-09T00:24:58.932Z,14.28
2023-05-09T00:27:30.492Z,14.31
2023-05-09T00:29:59.107Z,14.29
2023-05-09T00:32:29.055Z,14.35
2023-05-09T00:34:57.831Z,14.27
2023-05-09T00:37:26.826Z,14.23
2023-05-09T00:39:55.450Z,14.23
2023-05-09T00:42:24.055Z,14.17
2023-05-09T00:44:54.034Z,14.13
2023-05-09T00:47:24.981Z,14.15
2023-05-09T00:49:53.623Z,14.16
2023-05-09T00:52:23.438Z,14.03
2023-05-09T00:54:52.740Z,14.00
2023-05-09T00:57:21.687Z,13.99
2023-05-09T00:59:50.794Z,13.92
2023-05-09T01:02:21.039Z,13.93
2023-05-09T01:04:49.674Z,13.85
2023-05-09T01:07:23.839Z,13.85
2023-05-09T01:09:57.888Z,13.80
2023-05-09T01:12:32.582Z,13.74
2023-05-09T01:15:06.765Z,13.70
2023-05-09T01:17:41.463Z,13.65
2023-05-09T01:20:14.447Z,13.66
2023-05-09T01:22:48.243Z,13.61
2023-05-09T01:25:36.012Z,13.60
2023-05-09T01:28:13.963Z,13.54
2023-05-09T01:30:46.809Z,13.50
2023-05-09T01:33:19.129Z,13.48
2023-05-09T01:35:51.250Z,13.50
2023-05-09T01:38:21.533Z,13.50
2023-05-09T01:40:51.551Z,13.49
2023-05-09T01:43:22.720Z,13.45
2023-05-09T01:45:53.148Z,13.47
2023-05-09T01:48:22.265Z,13.43
2023-05-09T01:50:51.014Z,13.45
2023-05-09T01:53:20.421Z,13.46
2023-05-09T01:55:49.802Z,13.46
2023-05-09T01:58:19.547Z,13.43
2023-05-09T02:00:49.273Z,13.46
2023-05-09T02:03:19.431Z,13.38
2023-05-09T02:05:48.448Z,13.39
2023-05-09T02:08:21.069Z,13.41
2023-05-09T02:10:50.561Z,13.39
2023-05-09T02:13:19.260Z,13.38
2023-05-09T02:15:48.074Z,13.38
2023-05-09T02:18:17.231Z,13.35
2023-05-09T02:20:49.046Z,13.43
2023-05-09T02:23:17.784Z,13.38
2023-05-09T02:25:47.056Z,13.35
2023-05-09T02:28:16.177Z,13.33
2023-05-09T02:30:46.834Z,13.29
2023-05-09T02:33:15.744Z,13.23
2023-05-09T02:35:47.296Z,13.19
2023-05-09T02:38:17.458Z,13.21
2023-05-09T02:40:48.428Z,13.21
2023-05-09T02:43:18.076Z,13.23
2023-05-09T02:45:46.778Z,13.16
2023-05-09T02:48:15.813Z,13.18
2023-05-09T02:50:45.925Z,13.19
2023-05-09T02:53:14.515Z,13.18
2023-05-09T02:55:44.680Z,13.16
2023-05-09T02:58:14.783Z,13.15
2023-05-09T03:00:44.095Z,13.15
2023-05-09T03:03:12.785Z,13.15
2023-05-09T03:05:41.490Z,13.20
2023-05-09T03:08:10.102Z,13.21
2023-05-09T03:10:38.695Z,13.20
2023-05-09T03:13:10.343Z,13.13
2023-05-09T03:15:39.090Z,13.12
2023-05-09T03:18:07.824Z,13.17
2023-05-09T03:20:36.457Z,13.12
2023-05-09T03:23:05.097Z,13.09
2023-05-09T03:25:33.729Z,13.07
2023-05-09T03:28:02.352Z,13.05
2023-05-09T03:30:32.316Z,13.06
2023-05-09T03:33:00.996Z,13.06
2023-05-09T03:35:29.679Z,13.07
2023-05-09T03:37:58.273Z,13.08
2023-05-09T03:40:26.867Z,13.02
2023-05-09T03:42:55.496Z,12.97
2023-05-09T03:45:24.147Z,12.97
2023-05-09T03:47:54.102Z,12.98
2023-05-09T03:50:22.786Z,13.00
2023-05-09T03:52:51.423Z,12.91
2023-05-09T03:55:20.074Z,12.93
2023-05-09T03:57:48.702Z,12.89
2023-05-09T04:00:17.841Z,12.89
2023-05-09T04:02:46.519Z,12.92
2023-05-09T04:05:17.052Z,12.86
2023-05-09T04:07:46.048Z,12.92
2023-05-09T04:10:14.675Z,12.93
2023-05-09T04:12:43.274Z,12.86
2023-05-09T04:15:14.707Z,12.85
2023-05-09T04:17:44.004Z,12.86
2023-05-09T04:20:13.456Z,12.83
2023-05-09T04:22:46.100Z,12.86
2023-05-09T04:25:16.055Z,12.93
2023-05-09T04:27:44.889Z,12.92
2023-05-09T04:30:14.220Z,12.94
2023-05-09T04:32:45.817Z,12.95
2023-05-09T04:35:15.662Z,13.10
2023-05-09T04:37:46.702Z,13.06
2023-05-09T04:40:15.417Z,13.09
2023-05-09T04:42:44.086Z,13.02
2023-05-09T04:45:13.183Z,13.07
2023-05-09T04:47:42.166Z,13.05
2023-05-09T04:50:11.562Z,13.06
2023-05-09T04:52:40.140Z,13.06
2023-05-09T04:55:10.783Z,13.11
2023-05-09T04:57:39.741Z,13.13
2023-05-09T05:00:11.330Z,13.15
2023-05-09T05:02:40.069Z,13.22
2023-05-09T05:05:17.618Z,13.24
2023-05-09T05:07:46.347Z,13.33
2023-05-09T05:10:16.536Z,13.35
2023-05-09T05:12:45.229Z,13.36
2023-05-09T05:15:14.407Z,13.39
2023-05-09T05:17:43.205Z,13.51
2023-05-09T05:20:12.434Z,13.56
2023-05-09T05:22:40.997Z,13.54
2023-05-09T05:25:10.212Z,13.63
2023-05-09T05:27:40.107Z,13.87
2023-05-09T05:30:09.875Z,14.24
2023-05-09T05:32:38.568Z,14.37
2023-05-09T05:35:07.875Z,14.41
2023-05-09T05:37:36.566Z,14.44
2023-05-09T05:40:06.158Z,14.38
2023-05-09T05:42:35.049Z,14.36
2023-05-09T05:45:05.423Z,14.46
2023-05-09T05:47:34.582Z,14.41
2023-05-09T05:50:06.357Z,14.40
2023-05-09T05:52:35.292Z,14.40
2023-05-09T05:55:03.976Z,14.45
2023-05-09T05:57:33.192Z,14.52
2023-05-09T06:00:03.303Z,14.55
2023-05-09T06:02:33.435Z,14.60
2023-05-09T06:05:03.645Z,14.59
2023-05-09T06:07:32.251Z,14.52
2023-05-09T06:10:00.824Z,14.47
2023-05-09T06:12:29.501Z,14.45
2023-05-09T06:14:58.085Z,14.49
2023-05-09T06:17:27.067Z,14.44
2023-05-09T06:19:57.107Z,14.50
2023-05-09T06:22:25.720Z,14.60
2023-05-09T06:24:54.423Z,14.64
2023-05-09T06:27:23.103Z,14.73
2023-05-09T06:29:52.692Z,14.82
2023-05-09T06:32:21.377Z,14.82
2023-05-09T06:34:49.977Z,14.96
2023-05-09T06:37:20.002Z,15.12
2023-05-09T06:39:48.681Z,15.32
2023-05-09T06:42:17.720Z,15.56
2023-05-09T06:44:46.431Z,15.77
2023-05-09T06:47:15.064Z,16.06
2023-05-09T06:49:43.765Z,16.08
2023-05-09T06:52:12.897Z,16.22
2023-05-09T06:54:42.902Z,16.21
2023-05-09T06:57:11.595Z,16.23
2023-05-09T06:59:40.233Z,16.16
2023-05-09T07:02:08.925Z,16.29
2023-05-09T07:04:37.570Z,16.30
2023-05-09T07:07:06.290Z,16.33
2023-05-09T07:09:34.981Z,16.49
2023-05-09T07:12:05.530Z,16.63
2023-05-09T07:14:34.141Z,16.71
2023-05-09T07:17:18.079Z,17.00
2023-05-09T07:19:50.284Z,17.12
2023-05-09T07:22:19.075Z,17.32
2023-05-09T07:24:47.946Z,17.51
2023-05-09T07:27:18.024Z,17.58
2023-05-09T07:29:46.630Z,17.69
2023-05-09T07:32:15.548Z,17.85
2023-05-09T07:34:44.248Z,18.15
2023-05-09T07:37:14.529Z,18.45
2023-05-09T07:39:44.987Z,18.74
2023-05-09T07:42:13.648Z,19.07
2023-05-09T07:44:43.633Z,19.33
2023-05-09T07:47:12.304Z,19.67
2023-05-09T07:49:43.186Z,19.78
2023-05-09T07:52:11.861Z,19.96
2023-05-09T07:54:41.110Z,20.13
2023-05-09T07:57:09.850Z,20.31
2023-05-09T07:59:38.608Z,20.45
2023-05-09T08:02:09.338Z,20.47
2023-05-09T08:04:41.236Z,20.69
2023-05-09T08:07:11.864Z,20.73
2023-05-09T08:09:40.689Z,20.47
2023-05-09T08:12:09.564Z,20.64
2023-05-09T08:14:38.236Z,20.88
2023-05-09T08:17:08.301Z,21.08
2023-05-09T08:19:36.961Z,21.01
2023-05-09T08:22:05.813Z,21.01
2023-05-09T08:24:34.456Z,21.10
2023-05-09T08:27:03.094Z,21.14
2023-05-09T08:29:31.942Z,21.22
2023-05-09T08:32:00.642Z,21.32
2023-05-09T08:34:34.429Z,21.02
2023-05-09T08:37:03.619Z,21.01
2023-05-09T08:39:34.971Z,20.92
2023-05-09T08:42:04.112Z,21.02
2023-05-09T08:44:32.733Z,21.36
2023-05-09T08:47:03.220Z,21.43
2023-05-09T08:49:33.435Z,21.56
2023-05-09T08:52:02.781Z,21.68
2023-05-09T08:54:31.583Z,21.99
2023-05-09T08:57:02.279Z,21.83
2023-05-09T08:59:30.997Z,21.96
2023-05-09T09:02:00.211Z,22.09
2023-05-09T09:04:28.928Z,22.13
2023-05-09T09:06:59.246Z,22.26
2023-05-09T09:09:27.900Z,22.16
2023-05-09T09:11:56.786Z,22.16
2023-05-09T09:14:26.612Z,22.33
2023-05-09T09:16:56.829Z,22.48
2023-05-09T09:19:31.696Z,22.29
2023-05-09T09:22:04.450Z,22.35
2023-05-09T09:24:33.262Z,22.27
2023-05-09T09:27:06.266Z,22.13
2023-05-09T09:29:35.406Z,21.61
2023-05-09T09:32:05.043Z,21.52
2023-05-09T09:34:33.832Z,21.58
2023-05-09T09:37:03.896Z,21.53
2023-05-09T09:39:32.462Z,21.41
2023-05-09T09:42:10.989Z,21.32
2023-05-09T09:44:39.598Z,21.26
2023-05-09T09:47:11.131Z,21.17
2023-05-09T09:49:46.362Z,21.06
2023-05-09T09:52:23.656Z,21.14
2023-05-09T09:54:52.342Z,21.24
2023-05-09T09:57:35.374Z,21.17
2023-05-09T10:00:04.811Z,21.16
2023-05-09T10:02:33.964Z,21.17
2023-05-09T10:05:08.809Z,21.01
2023-05-09T10:07:38.820Z,21.01
2023-05-09T10:10:08.404Z,21.07
2023-05-09T10:12:37.731Z,21.09
2023-05-09T10:15:08.653Z,21.09
2023-05-09T10:17:37.413Z,21.01
2023-05-09T10:20:07.513Z,21.02
2023-05-09T10:22:39.622Z,21.07
2023-05-09T10:25:16.483Z,21.23
2023-05-09T10:27:47.612Z,21.32
2023-05-09T10:30:19.271Z,21.20
2023-05-09T10:32:54.314Z,21.09
2023-05-09T10:35:27.466Z,20.97
2023-05-09T10:37:58.085Z,21.00
2023-05-09T10:40:26.998Z,21.35
2023-05-09T10:42:55.828Z,21.52
2023-05-09T10:45:24.794Z,21.54
2023-05-09T10:47:53.939Z,21.67
2023-05-09T10:50:22.838Z,21.80
2023-05-09T10:53:11.930Z,21.85
2023-05-09T10:55:50.091Z,21.97
2023-05-09T10:58:23.785Z,21.98
2023-05-09T11:00:54.599Z,21.79
2023-05-09T11:03:24.785Z,21.95
2023-05-09T11:05:54.704Z,22.05
2023-05-09T11:08:26.280Z,22.05
2023-05-09T11:10:56.249Z,22.16
2023-05-09T11:13:26.370Z,22.30
2023-05-09T11:16:10.719Z,22.34
2023-05-09T11:18:53.403Z,22.46
2023-05-09T11:21:22.415Z,22.68
2023-05-09T11:23:55.158Z,22.99
2023-05-09T11:26:24.563Z,22.99
2023-05-09T11:28:56.705Z,22.97
2023-05-09T11:31:25.468Z,22.79
2023-05-09T11:34:04.322Z,22.55
2023-05-09T11:36:33.727Z,22.47
2023-05-09T11:39:06.361Z,22.28
2023-05-09T11:41:41.092Z,21.99
2023-05-09T11:44:19.318Z,21.96
2023-05-09T11:46:49.453Z,22.14
2023-05-09T11:49:19.490Z,21.91
2023-05-09T11:51:48.186Z,21.84
2023-05-09T11:54:18.184Z,21.69
2023-05-09T11:56:46.904Z,21.66
2023-05-09T11:59:15.853Z,21.72
2023-05-09T12:01:44.597Z,21.84
2023-05-09T12:04:13.401Z,22.03
2023-05-09T12:06:48.381Z,22.16
2023-05-09T12:09:19.948Z,22.38
2023-05-09T12:11:50.082Z,22.37
2023-05-09T12:14:27.984Z,22.62
2023-05-09T12:16:56.643Z,22.79
2023-05-09T12:19:25.827Z,22.58
2023-05-09T12:21:58.311Z,22.50
2023-05-09T12:24:28.906Z,22.37
2023-05-09T12:26:58.598Z,22.23
2023-05-09T12:29:28.228Z,22.39
2023-05-09T12:31:57.270Z,22.66
2023-05-09T12:34:26.036Z,22.71
2023-05-09T12:36:54.674Z,22.81
2023-05-09T12:39:24.419Z,22.84
2023-05-09T12:42:01.617Z,22.66
2023-05-09T12:44:30.759Z,22.62
2023-05-09T12:47:01.263Z,22.75
2023-05-09T12:49:30.813Z,22.80
2023-05-09T12:52:03.706Z,22.57
2023-05-09T12:54:33.184Z,22.75
2023-05-09T12:57:05.539Z,22.82
2023-05-09T12:59:34.172Z,22.83
2023-05-09T13:02:02.973Z,22.82
2023-05-09T13:04:31.648Z,22.78
2023-05-09T13:07:00.413Z,22.70
2023-05-09T13:09:29.542Z,22.77
2023-05-09T13:11:58.236Z,22.76
2023-05-09T13:14:28.526Z,22.88
2023-05-09T13:16:57.301Z,22.85
2023-05-09T13:19:26.060Z,22.81
2023-05-09T13:21:55.913Z,22.88
2023-05-09T13:24:24.635Z,22.89
2023-05-09T13:26:53.223Z,22.85
2023-05-09T13:29:21.853Z,22.90
2023-05-09T13:31:52.129Z,22.85
2023-05-09T13:34:20.771Z,22.96
2023-05-09T13:36:49.452Z,22.93
2023-05-09T13:39:18.132Z,22.86
2023-05-09T13:41:48.536Z,22.86
2023-05-09T13:44:17.154Z,22.96
2023-05-09T13:46:46.589Z,22.88
2023-05-09T13:49:16.852Z,22.85
2023-05-09T13:51:45.490Z,22.77
2023-05-09T13:54:15.446Z,22.72
2023-05-09T13:56:44.265Z,22.63
2023-05-09T13:59:13.180Z,22.62
2023-05-09T14:01:41.855Z,22.60
2023-05-09T14:04:10.582Z,22.50
2023-05-09T14:06:40.687Z,22.52
2023-05-09T14:09:09.895Z,22.39
2023-05-09T14:11:38.499Z,22.32
2023-05-09T14:14:07.229Z,22.26
2023-05-09T14:16:35.921Z,22.15
2023-05-09T14:19:04.605Z,22.02
2023-05-09T14:21:33.234Z,21.84
2023-05-09T14:24:03.196Z,21.75
2023-05-09T14:26:32.226Z,21.67
2023-05-09T14:29:00.948Z,21.58
2023-05-09T14:31:29.721Z,21.32
2023-05-09T14:34:00.134Z,20.96
2023-05-09T14:36:29.098Z,20.58
2023-05-09T14:38:57.798Z,19.71
2023-05-09T14:41:27.822Z,19.23
2023-05-09T14:43:56.414Z,18.79
2023-05-09T14:46:25.592Z,18.59
2023-05-09T14:48:54.700Z,18.38
2023-05-09T14:51:23.381Z,18.26
2023-05-09T14:53:53.363Z,18.04
2023-05-09T14:56:22.062Z,17.88
2023-05-09T14:58:52.074Z,17.75
2023-05-09T15:01:20.788Z,17.75
2023-05-09T15:03:49.458Z,17.70
2023-05-09T15:06:18.334Z,17.76
2023-05-09T15:08:47.102Z,17.83
2023-05-09T15:11:15.714Z,17.91
2023-05-09T15:13:44.308Z,17.93
2023-05-09T15:16:14.330Z,18.05
2023-05-09T15:18:45.360Z,18.13
2023-05-09T15:21:14.219Z,18.17
2023-05-09T15:23:43.144Z,18.21
2023-05-09T15:26:12.404Z,18.25
2023-05-09T15:28:40.999Z,18.22
2023-05-09T15:31:14.318Z,18.32
2023-05-09T15:33:43.164Z,18.36
2023-05-09T15:36:11.882Z,18.35
2023-05-09T15:38:40.733Z,18.36
2023-05-09T15:41:10.592Z,18.36
2023-05-09T15:43:39.243Z,18.37
2023-05-09T15:46:07.998Z,18.23
2023-05-09T15:48:38.013Z,18.20
2023-05-09T15:51:07.171Z,18.20
2023-05-09T15:53:36.415Z,18.15
2023-05-09T15:56:05.485Z,18.13
2023-05-09T15:58:34.166Z,18.14
2023-05-09T16:01:05.681Z,17.97
2023-05-09T16:03:34.759Z,17.96
2023-05-09T16:06:05.267Z,17.95
2023-05-09T16:08:33.956Z,17.89
2023-05-09T16:11:03.345Z,17.89
2023-05-09T16:13:33.005Z,17.87
2023-05-09T16:16:04.064Z,17.87
2023-05-09T16:18:32.728Z,17.88
2023-05-09T16:21:01.414Z,17.89
2023-05-09T16:23:31.423Z,17.90
2023-05-09T16:26:00.089Z,17.85
2023-05-09T16:28:29.475Z,17.90
2023-05-09T16:31:00.064Z,17.94
2023-05-09T16:33:29.174Z,17.91
2023-05-09T16:35:59.073Z,17.86
2023-05-09T16:38:28.411Z,17.88
2023-05-09T16:40:58.450Z,17.89
2023-05-09T16:43:27.129Z,17.91
2023-05-09T16:45:55.731Z,17.84
2023-05-09T16:48:24.433Z,17.81
2023-05-09T16:50:53.957Z,17.75
2023-05-09T16:53:23.145Z,17.70
2023-05-09T16:55:53.859Z,17.65
2023-05-09T16:58:25.105Z,17.72
2023-05-09T17:00:54.933Z,17.82
2023-05-09T17:03:23.976Z,17.74
2023-05-09T17:05:52.586Z,17.65
2023-05-09T17:08:21.303Z,17.54
2023-05-09T17:10:49.929Z,17.47
2023-05-09T17:13:18.554Z,17.41
2023-05-09T17:15:48.624Z,17.39
2023-05-09T17:18:25.442Z,17.37
2023-05-09T17:21:02.667Z,17.30
2023-05-09T17:23:31.657Z,17.27
2023-05-09T17:26:00.387Z,17.17
2023-05-09T17:28:29.022Z,17.11
2023-05-09T17:30:59.546Z,17.05
2023-05-09T17:33:28.186Z,17.00
2023-05-09T17:35:57.399Z,17.00
2023-05-09T17:38:26.015Z,16.98
2023-05-09T17:40:54.693Z,16.93
2023-05-09T17:43:24.080Z,16.94
2023-05-09T17:45:53.038Z,16.95
2023-05-09T17:48:23.126Z,16.98
2023-05-09T17:50:51.838Z,16.95
2023-05-09T17:53:20.565Z,16.86
2023-05-09T17:55:49.141Z,16.83
2023-05-09T17:58:17.799Z,16.73
2023-05-09T18:00:46.542Z,16.62
2023-05-09T18:03:15.310Z,16.58
2023-05-09T18:05:45.423Z,16.32
2023-05-09T18:08:14.012Z,16.29
2023-05-09T18:10:42.723Z,16.24
2023-05-09T18:13:11.596Z,16.24
2023-05-09T18:15:41.165Z,16.25
2023-05-09T18:18:11.588Z,16.25
2023-05-09T18:20:41.717Z,16.22
2023-05-09T18:23:11.696Z,16.25
2023-05-09T18:25:40.357Z,16.23
2023-05-09T18:28:09.416Z,16.17
2023-05-09T18:30:38.852Z,16.12
2023-05-09T18:33:08.059Z,16.08
2023-05-09T18:35:36.835Z,16.07
2023-05-09T18:38:05.488Z,16.01
2023-05-09T18:40:37.114Z,16.00
2023-05-09T18:43:06.274Z,15.97
2023-05-09T18:45:35.635Z,15.98
2023-05-09T18:48:04.884Z,15.96
2023-05-09T18:50:33.623Z,15.94
2023-05-09T18:53:03.028Z,15.87
2023-05-09T18:55:31.984Z,15.85
2023-05-09T18:58:02.027Z,15.85
2023-05-09T19:00:30.891Z,15.84
2023-05-09T19:02:59.675Z,15.88
2023-05-09T19:05:28.473Z,15.84
2023-05-09T19:07:57.194Z,15.80
2023-05-09T19:10:25.934Z,15.82
2023-05-09T19:12:56.330Z,15.77
2023-05-09T19:15:26.506Z,15.81
2023-05-09T19:17:55.178Z,15.83
2023-05-09T19:20:25.009Z,15.79
2023-05-09T19:22:53.860Z,15.82
2023-05-09T19:25:22.659Z,15.98
2023-05-09T19:27:52.610Z,15.92
2023-05-09T19:30:21.423Z,15.88
2023-05-09T19:32:51.451Z,15.90
2023-05-09T19:35:20.925Z,15.84
2023-05-09T19:37:49.611Z,15.81
2023-05-09T19:40:18.478Z,15.78
2023-05-09T19:42:47.211Z,15.74
2023-05-09T19:45:15.875Z,15.74
2023-05-09T19:47:44.669Z,15.70
2023-05-09T19:50:14.811Z,15.72
2023-05-09T19:52:43.619Z,15.69
2023-05-09T19:55:12.539Z,15.65
2023-05-09T19:57:41.598Z,15.67
2023-05-09T20:00:11.381Z,15.61
2023-05-09T20:02:40.217Z,15.57
2023-05-09T20:05:09.796Z,15.53
2023-05-09T20:07:39.858Z,15.51
2023-05-09T20:10:09.361Z,15.52
2023-05-09T20:12:38.025Z,15.51
2023-05-09T20:15:07.980Z,15.47
2023-05-09T20:17:36.622Z,15.43
2023-05-09T20:20:06.153Z,15.34
2023-05-09T20:22:34.756Z,15.39
2023-05-09T20:25:05.201Z,15.40
2023-05-09T20:27:35.373Z,15.38
2023-05-09T20:30:04.317Z,15.41
2023-05-09T20:32:33.028Z,15.39
2023-05-09T20:35:01.677Z,15.38
2023-05-09T20:37:30.369Z,15.38
2023-05-09T20:39:59.050Z,15.40
2023-05-09T20:42:29.697Z,15.38
2023-05-09T20:44:58.286Z,15.39
2023-05-09T20:47:27.186Z,15.34
2023-05-09T20:49:58.099Z,15.32
2023-05-09T20:52:27.197Z,15.31
2023-05-09T20:54:55.873Z,15.31
2023-05-09T20:57:24.514Z,15.27
2023-05-09T20:59:54.510Z,15.28
2023-05-09T21:02:23.184Z,15.24
2023-05-09T21:04:51.822Z,15.17
2023-05-09T21:07:20.674Z,15.17
2023-05-09T21:09:50.723Z,15.15
2023-05-09T21:12:19.546Z,15.10
2023-05-09T21:14:48.934Z,15.14
2023-05-09T21:17:19.264Z,15.16
2023-05-09T21:19:51.394Z,15.15
2023-05-09T21:22:20.113Z,15.10
2023-05-09T21:24:48.778Z,15.07
2023-05-09T21:27:17.636Z,15.04
2023-05-09T21:29:49.192Z,15.02
2023-05-09T21:32:19.176Z,15.03
2023-05-09T21:34:48.758Z,15.04
2023-05-09T21:37:17.428Z,15.04
2023-05-09T21:39:46.134Z,15.04
2023-05-09T21:42:14.792Z,15.04
2023-05-09T21:44:43.455Z,15.01
2023-05-09T21:47:12.717Z,15.04
2023-05-09T21:49:42.792Z,15.10
2023-05-09T21:52:11.454Z,15.10
2023-05-09T21:54:40.076Z,15.10
2023-05-09T21:57:08.651Z,15.10
2023-05-09T21:59:37.616Z,15.10
2023-05-09T22:02:06.294Z,15.09
2023-05-09T22:04:34.957Z,15.06
2023-05-09T22:07:04.978Z,15.00
2023-05-09T22:09:33.678Z,15.01
2023-05-09T22:12:02.290Z,15.03
2023-05-09T22:14:35.206Z,15.02
2023-05-09T22:17:08.374Z,14.96
2023-05-09T22:19:38.261Z,14.95
2023-05-09T22:22:08.207Z,14.95
2023-05-09T22:24:37.514Z,14.94
2023-05-09T22:27:06.331Z,14.93
2023-05-09T22:29:35.118Z,14.96
2023-05-09T22:32:03.860Z,14.93
2023-05-09T22:34:32.503Z,14.92
2023-05-09T22:37:01.133Z,14.93
2023-05-09T22:39:31.103Z,14.92
2023-05-09T22:41:59.682Z,14.91
2023-05-09T22:44:28.358Z,14.89
2023-05-09T22:46:56.945Z,14.87
2023-05-09T22:49:25.541Z,14.85
2023-05-09T22:51:54.225Z,14.83
2023-05-09T22:54:23.008Z,14.82
2023-05-09T22:56:52.940Z,14.82
2023-05-09T22:59:21.495Z,14.82
2023-05-09T23:01:50.296Z,14.80
2023-05-09T23:04:18.942Z,14.79
2023-05-09T23:06:47.557Z,14.79
2023-05-09T23:09:16.157Z,14.76
2023-05-09T23:11:44.753Z,14.72
2023-05-09T23:14:14.881Z,14.74
2023-05-09T23:16:43.607Z,14.75
2023-05-09T23:19:12.166Z,14.75
2023-05-09T23:21:40.784Z,14.63
2023-05-09T23:24:09.646Z,14.64
2023-05-09T23:26:38.321Z,14.66
2023-05-09T23:29:06.946Z,14.65
2023-05-09T23:31:37.096Z,14.64
2023-05-09T23:34:05.685Z,14.64
2023-05-09T23:36:34.322Z,14.65
2023-05-09T23:39:03.576Z,14.62
2023-05-09T23:41:32.174Z,14.63
2023-05-09T23:44:01.906Z,14.54
2023-05-09T23:46:30.757Z,14.54
2023-05-09T23:49:00.866Z,14.53
2023-05-09T23:51:29.496Z,14.43
2023-05-09T23:53:58.089Z,14.44
2023-05-09T23:56:26.726Z,14.46
2023-05-09T23:58:55.581Z,14.45
